sensor_id;sensor_type;location;lat;lon;timestamp;pressure;altitude;pressure_sealevel;temperature;humidity
6128;BME280;7073;42.672;23.256;2022-09-17T00:00:48;93581.59;;;18.50;100.00
6128;BME280;7073;42.672;23.256;2022-09-17T00:03:15;93586.78;;;18.55;100.00
6128;BME280;7073;42.672;23.256;2022-09-17T00:05:43;93582.00;;;18.57;100.00
6128;BME280;7073;42.672;23.256;2022-09-17T00:08:13;93569.84;;;18.61;100.00
6128;BME280;7073;42.672;23.256;2022-09-17T00:10:42;93569.66;;;17.82;100.00
6128;BME280;7073;42.672;23.256;2022-09-17T00:13:10;93551.09;;;18.39;100.00
6128;BME280;7073;42.672;23.256;2022-09-17T00:15:40;93553.78;;;18.34;100.00
6128;BME280;7073;42.672;23.256;2022-09-17T00:18:07;93546.78;;;18.24;100.00
6128;BME280;7073;42.672;23.256;2022-09-17T00:20:37;93524.69;;;17.97;100.00
6128;BME280;7073;42.672;23.256;2022-09-17T00:23:05;93556.19;;;18.12;100.00
6128;BME280;7073;42.672;23.256;2022-09-17T00:25:33;93545.09;;;17.86;100.00
6128;BME280;7073;42.672;23.256;2022-09-17T00:28:02;93535.09;;;17.88;100.00
6128;BME280;7073;42.672;23.256;2022-09-17T00:30:29;93550.28;;;18.20;100.00
6128;BME280;7073;42.672;23.256;2022-09-17T00:32:56;93547.25;;;18.08;100.00
6128;BME280;7073;42.672;23.256;2022-09-17T00:35:23;93550.28;;;18.20;100.00
6128;BME280;7073;42.672;23.256;2022-09-17T00:37:51;93554.44;;;17.73;100.00
6128;BME280;7073;42.672;23.256;2022-09-17T00:40:18;93538.75;;;17.63;100.00
6128;BME280;7073;42.672;23.256;2022-09-17T00:42:46;93557.50;;;17.86;100.00
6128;BME280;7073;42.672;23.256;2022-09-17T00:45:13;93560.84;;;18.15;100.00
6128;BME280;7073;42.672;23.256;2022-09-17T00:47:42;93569.56;;;18.39;100.00
6128;BME280;7073;42.672;23.256;2022-09-17T00:50:14;93578.16;;;18.50;100.00
6128;BME280;7073;42.672;23.256;2022-09-17T00:52:44;93584.59;;;18.15;100.00
6128;BME280;7073;42.672;23.256;2022-09-17T00:55:15;93529.75;;;18.17;100.00
6128;BME280;7073;42.672;23.256;2022-09-17T00:57:44;93581.75;;;18.59;100.00
6128;BME280;7073;42.672;23.256;2022-09-17T01:00:15;93589.41;;;18.08;100.00
6128;BME280;7073;42.672;23.256;2022-09-17T01:02:42;93587.81;;;18.36;100.00
6128;BME280;7073;42.672;23.256;2022-09-17T01:05:10;93568.94;;;18.23;100.00
6128;BME280;7073;42.672;23.256;2022-09-17T01:07:51;93574.56;;;17.93;100.00
6128;BME280;7073;42.672;23.256;2022-09-17T01:10:30;93529.03;;;17.88;100.00
6128;BME280;7073;42.672;23.256;2022-09-17T01:13:07;93570.63;;;17.91;100.00
6128;BME280;7073;42.672;23.256;2022-09-17T01:15:42;93555.50;;;18.25;100.00
6128;BME280;7073;42.672;23.256;2022-09-17T01:18:26;93551.22;;;17.53;100.00
6128;BME280;7073;42.672;23.256;2022-09-17T01:24:44;93553.22;;;18.37;100.00
6128;BME280;7073;42.672;23.256;2022-09-17T01:33:12;93554.03;;;18.14;100.00
6128;BME280;7073;42.672;23.256;2022-09-17T01:35:54;93542.03;;;18.03;100.00
6128;BME280;7073;42.672;23.256;2022-09-17T01:38:28;93538.81;;;17.82;100.00
6128;BME280;7073;42.672;23.256;2022-09-17T01:41:02;93534.84;;;17.85;100.00
6128;BME280;7073;42.672;23.256;2022-09-17T01:43:36;93517.06;;;17.71;100.00
6128;BME280;7073;42.672;23.256;2022-09-17T01:46:11;93478.22;;;17.82;100.00
6128;BME280;7073;42.672;23.256;2022-09-17T01:48:44;93504.88;;;17.99;100.00
6128;BME280;7073;42.672;23.256;2022-09-17T01:51:14;93539.72;;;17.73;100.00
6128;BME280;7073;42.672;23.256;2022-09-17T01:53:46;93554.09;;;17.56;100.00
6128;BME280;7073;42.672;23.256;2022-09-17T01:56:20;93562.03;;;17.46;100.00
6128;BME280;7073;42.672;23.256;2022-09-17T01:58:52;93526.69;;;17.52;100.00
6128;BME280;7073;42.672;23.256;2022-09-17T02:01:21;93558.13;;;17.78;100.00
6128;BME280;7073;42.672;23.256;2022-09-17T02:03:55;93545.69;;;17.78;100.00
6128;BME280;7073;42.672;23.256;2022-09-17T02:06:26;93512.78;;;18.23;100.00
6128;BME280;7073;42.672;23.256;2022-09-17T02:08:58;93507.38;;;17.91;100.00
6128;BME280;7073;42.672;23.256;2022-09-17T02:11:27;93464.88;;;17.73;100.00
6128;BME280;7073;42.672;23.256;2022-09-17T02:13:56;93449.13;;;17.68;100.00
6128;BME280;7073;42.672;23.256;2022-09-17T02:16:26;93415.38;;;17.70;100.00
6128;BME280;7073;42.672;23.256;2022-09-17T02:19:01;93417.88;;;17.81;100.00
6128;BME280;7073;42.672;23.256;2022-09-17T02:21:35;93412.13;;;17.97;100.00
6128;BME280;7073;42.672;23.256;2022-09-17T02:24:07;93386.22;;;18.23;100.00
6128;BME280;7073;42.672;23.256;2022-09-17T02:26:42;93384.75;;;18.17;100.00
6128;BME280;7073;42.672;23.256;2022-09-17T02:29:14;93410.38;;;17.93;100.00
6128;BME280;7073;42.672;23.256;2022-09-17T02:31:45;93429.56;;;17.75;100.00
6128;BME280;7073;42.672;23.256;2022-09-17T02:34:14;93458.00;;;17.78;100.00
6128;BME280;7073;42.672;23.256;2022-09-17T02:36:59;93462.28;;;17.68;100.00
6128;BME280;7073;42.672;23.256;2022-09-17T02:39:28;93449.75;;;17.60;100.00
6128;BME280;7073;42.672;23.256;2022-09-17T02:42:02;93442.41;;;17.52;100.00
6128;BME280;7073;42.672;23.256;2022-09-17T02:44:38;93431.72;;;17.91;100.00
6128;BME280;7073;42.672;23.256;2022-09-17T02:47:22;93409.91;;;17.67;100.00
6128;BME280;7073;42.672;23.256;2022-09-17T02:50:02;93426.59;;;18.00;100.00
6128;BME280;7073;42.672;23.256;2022-09-17T02:52:44;93430.28;;;18.22;100.00
6128;BME280;7073;42.672;23.256;2022-09-17T02:55:17;93434.84;;;17.75;100.00
6128;BME280;7073;42.672;23.256;2022-09-17T02:57:46;93395.16;;;17.66;100.00
6128;BME280;7073;42.672;23.256;2022-09-17T03:00:20;93413.13;;;17.83;100.00
6128;BME280;7073;42.672;23.256;2022-09-17T03:02:50;93400.06;;;17.96;100.00
6128;BME280;7073;42.672;23.256;2022-09-17T03:05:23;93385.66;;;18.07;100.00
6128;BME280;7073;42.672;23.256;2022-09-17T03:07:50;93373.75;;;18.10;100.00
6128;BME280;7073;42.672;23.256;2022-09-17T03:10:17;93396.69;;;18.28;100.00
6128;BME280;7073;42.672;23.256;2022-09-17T03:12:44;93414.41;;;17.85;100.00
6128;BME280;7073;42.672;23.256;2022-09-17T03:15:11;93440.03;;;17.80;100.00
6128;BME280;7073;42.672;23.256;2022-09-17T03:17:38;93424.72;;;17.82;100.00
6128;BME280;7073;42.672;23.256;2022-09-17T03:20:05;93402.78;;;17.86;100.00
6128;BME280;7073;42.672;23.256;2022-09-17T03:22:34;93395.50;;;17.78;100.00
6128;BME280;7073;42.672;23.256;2022-09-17T03:25:01;93376.50;;;17.81;100.00
6128;BME280;7073;42.672;23.256;2022-09-17T03:27:28;93406.47;;;17.66;100.00
6128;BME280;7073;42.672;23.256;2022-09-17T03:29:54;93399.16;;;17.82;100.00
6128;BME280;7073;42.672;23.256;2022-09-17T03:32:21;93404.88;;;18.08;100.00
6128;BME280;7073;42.672;23.256;2022-09-17T03:34:48;93391.00;;;18.21;100.00
6128;BME280;7073;42.672;23.256;2022-09-17T03:37:15;93376.19;;;18.25;100.00
6128;BME280;7073;42.672;23.256;2022-09-17T03:39:43;93370.31;;;18.28;100.00
6128;BME280;7073;42.672;23.256;2022-09-17T03:42:10;93375.16;;;18.21;100.00
6128;BME280;7073;42.672;23.256;2022-09-17T03:44:37;93353.28;;;18.02;100.00
6128;BME280;7073;42.672;23.256;2022-09-17T03:47:04;93358.22;;;18.27;100.00
6128;BME280;7073;42.672;23.256;2022-09-17T03:49:31;93370.91;;;17.88;100.00
6128;BME280;7073;42.672;23.256;2022-09-17T03:51:57;93358.88;;;18.00;100.00
6128;BME280;7073;42.672;23.256;2022-09-17T03:54:24;93376.59;;;18.32;100.00
6128;BME280;7073;42.672;23.256;2022-09-17T03:56:52;93344.25;;;18.26;100.00
6128;BME280;7073;42.672;23.256;2022-09-17T03:59:19;93394.69;;;18.57;100.00
6128;BME280;7073;42.672;23.256;2022-09-17T04:01:47;93412.50;;;18.28;100.00
6128;BME280;7073;42.672;23.256;2022-09-17T04:04:14;93402.75;;;18.28;100.00
6128;BME280;7073;42.672;23.256;2022-09-17T04:06:40;93410.47;;;18.25;100.00
6128;BME280;7073;42.672;23.256;2022-09-17T04:09:07;93396.03;;;18.36;100.00
6128;BME280;7073;42.672;23.256;2022-09-17T04:11:34;93401.72;;;18.48;100.00
6128;BME280;7073;42.672;23.256;2022-09-17T04:14:02;93368.91;;;18.17;100.00
6128;BME280;7073;42.672;23.256;2022-09-17T04:16:29;93388.00;;;18.27;100.00
6128;BME280;7073;42.672;23.256;2022-09-17T04:18:56;93438.06;;;18.51;100.00
6128;BME280;7073;42.672;23.256;2022-09-17T04:21:23;93468.69;;;18.28;100.00
6128;BME280;7073;42.672;23.256;2022-09-17T04:23:50;93485.94;;;18.40;100.00
6128;BME280;7073;42.672;23.256;2022-09-17T04:26:17;93467.28;;;18.12;100.00
6128;BME280;7073;42.672;23.256;2022-09-17T04:28:43;93487.38;;;18.32;100.00
6128;BME280;7073;42.672;23.256;2022-09-17T04:31:12;93492.84;;;18.59;100.00
6128;BME280;7073;42.672;23.256;2022-09-17T04:33:39;93501.53;;;18.36;100.00
6128;BME280;7073;42.672;23.256;2022-09-17T04:36:06;93515.06;;;18.53;100.00
6128;BME280;7073;42.672;23.256;2022-09-17T04:38:32;93532.75;;;18.53;100.00
6128;BME280;7073;42.672;23.256;2022-09-17T04:40:59;93541.81;;;18.42;100.00
6128;BME280;7073;42.672;23.256;2022-09-17T04:43:26;93539.47;;;18.40;100.00
6128;BME280;7073;42.672;23.256;2022-09-17T04:45:53;93538.88;;;18.24;100.00
6128;BME280;7073;42.672;23.256;2022-09-17T04:48:21;93526.13;;;18.55;100.00
6128;BME280;7073;42.672;23.256;2022-09-17T04:50:48;93562.25;;;18.55;100.00
6128;BME280;7073;42.672;23.256;2022-09-17T04:53:16;93571.22;;;18.77;100.00
6128;BME280;7073;42.672;23.256;2022-09-17T04:55:43;93575.56;;;19.06;100.00
6128;BME280;7073;42.672;23.256;2022-09-17T04:58:10;93583.06;;;19.17;100.00
6128;BME280;7073;42.672;23.256;2022-09-17T05:00:36;93583.25;;;19.21;100.00
6128;BME280;7073;42.672;23.256;2022-09-17T05:03:03;93573.47;;;19.21;100.00
6128;BME280;7073;42.672;23.256;2022-09-17T05:05:31;93559.47;;;19.21;100.00
6128;BME280;7073;42.672;23.256;2022-09-17T05:07:58;93549.00;;;18.97;100.00
6128;BME280;7073;42.672;23.256;2022-09-17T05:10:25;93565.00;;;19.06;100.00
6128;BME280;7073;42.672;23.256;2022-09-17T05:12:53;93567.41;;;19.02;100.00
6128;BME280;7073;42.672;23.256;2022-09-17T05:15:21;93546.38;;;18.97;100.00
6128;BME280;7073;42.672;23.256;2022-09-17T05:17:48;93536.25;;;19.04;100.00
6128;BME280;7073;42.672;23.256;2022-09-17T05:20:16;93536.59;;;18.98;100.00
6128;BME280;7073;42.672;23.256;2022-09-17T05:22:46;93513.97;;;19.10;100.00
6128;BME280;7073;42.672;23.256;2022-09-17T05:25:15;93508.50;;;19.07;100.00
6128;BME280;7073;42.672;23.256;2022-09-17T05:27:42;93494.34;;;19.16;100.00
6128;BME280;7073;42.672;23.256;2022-09-17T05:30:10;93517.78;;;19.04;100.00
6128;BME280;7073;42.672;23.256;2022-09-17T05:32:38;93527.22;;;19.24;100.00
6128;BME280;7073;42.672;23.256;2022-09-17T05:35:06;93469.19;;;18.86;100.00
6128;BME280;7073;42.672;23.256;2022-09-17T05:37:33;93517.00;;;19.36;100.00
6128;BME280;7073;42.672;23.256;2022-09-17T05:40:01;93492.00;;;19.28;100.00
6128;BME280;7073;42.672;23.256;2022-09-17T05:42:28;93522.84;;;19.65;100.00
6128;BME280;7073;42.672;23.256;2022-09-17T05:44:55;93533.16;;;19.67;100.00
6128;BME280;7073;42.672;23.256;2022-09-17T05:47:23;93537.19;;;19.78;100.00
6128;BME280;7073;42.672;23.256;2022-09-17T05:49:49;93521.91;;;19.88;100.00
6128;BME280;7073;42.672;23.256;2022-09-17T05:52:16;93520.94;;;19.98;100.00
6128;BME280;7073;42.672;23.256;2022-09-17T05:54:43;93510.25;;;19.89;100.00
6128;BME280;7073;42.672;23.256;2022-09-17T05:57:12;93519.66;;;19.95;100.00
6128;BME280;7073;42.672;23.256;2022-09-17T05:59:40;93503.56;;;19.78;100.00
6128;BME280;7073;42.672;23.256;2022-09-17T06:02:08;93509.09;;;19.95;100.00
6128;BME280;7073;42.672;23.256;2022-09-17T06:04:37;93507.91;;;20.01;100.00
6128;BME280;7073;42.672;23.256;2022-09-17T06:07:04;93509.09;;;20.09;100.00
6128;BME280;7073;42.672;23.256;2022-09-17T06:09:33;93517.63;;;20.20;100.00
6128;BME280;7073;42.672;23.256;2022-09-17T06:12:00;93497.94;;;19.98;100.00
6128;BME280;7073;42.672;23.256;2022-09-17T06:14:29;93528.09;;;20.11;100.00
6128;BME280;7073;42.672;23.256;2022-09-17T06:16:56;93544.84;;;20.34;100.00
6128;BME280;7073;42.672;23.256;2022-09-17T06:19:23;93563.53;;;20.10;100.00
6128;BME280;7073;42.672;23.256;2022-09-17T06:21:50;93574.69;;;19.80;100.00
6128;BME280;7073;42.672;23.256;2022-09-17T06:24:18;93600.09;;;19.62;100.00
6128;BME280;7073;42.672;23.256;2022-09-17T06:26:44;93608.09;;;19.57;100.00
6128;BME280;7073;42.672;23.256;2022-09-17T06:29:11;93617.50;;;19.26;100.00
6128;BME280;7073;42.672;23.256;2022-09-17T06:31:40;93617.50;;;19.26;100.00
6128;BME280;7073;42.672;23.256;2022-09-17T06:34:09;93623.19;;;19.38;100.00
6128;BME280;7073;42.672;23.256;2022-09-17T06:36:35;93613.81;;;19.45;100.00
6128;BME280;7073;42.672;23.256;2022-09-17T06:39:02;93628.00;;;19.31;100.00
6128;BME280;7073;42.672;23.256;2022-09-17T06:41:29;93613.19;;;19.53;100.00
6128;BME280;7073;42.672;23.256;2022-09-17T06:43:56;93590.56;;;19.93;100.00
6128;BME280;7073;42.672;23.256;2022-09-17T06:46:24;93568.22;;;19.99;100.00
6128;BME280;7073;42.672;23.256;2022-09-17T06:48:52;93593.28;;;19.75;100.00
6128;BME280;7073;42.672;23.256;2022-09-17T06:51:19;93593.31;;;19.56;100.00
6128;BME280;7073;42.672;23.256;2022-09-17T06:53:47;93554.78;;;19.69;100.00
6128;BME280;7073;42.672;23.256;2022-09-17T06:56:14;93573.94;;;20.06;100.00
6128;BME280;7073;42.672;23.256;2022-09-17T06:58:41;93568.00;;;19.69;100.00
6128;BME280;7073;42.672;23.256;2022-09-17T07:01:08;93552.00;;;19.60;100.00
6128;BME280;7073;42.672;23.256;2022-09-17T07:03:36;93540.78;;;19.68;100.00
6128;BME280;7073;42.672;23.256;2022-09-17T07:06:07;93524.41;;;19.52;100.00
6128;BME280;7073;42.672;23.256;2022-09-17T07:08:35;93527.34;;;20.24;100.00
6128;BME280;7073;42.672;23.256;2022-09-17T07:11:02;93508.22;;;20.41;100.00
6128;BME280;7073;42.672;23.256;2022-09-17T07:13:29;93501.47;;;20.70;100.00
6128;BME280;7073;42.672;23.256;2022-09-17T07:15:57;93496.28;;;21.15;100.00
6128;BME280;7073;42.672;23.256;2022-09-17T07:18:25;93488.22;;;21.28;100.00
6128;BME280;7073;42.672;23.256;2022-09-17T07:20:52;93481.56;;;21.62;100.00
6128;BME280;7073;42.672;23.256;2022-09-17T07:23:22;93487.34;;;21.64;100.00
6128;BME280;7073;42.672;23.256;2022-09-17T07:25:52;93487.16;;;21.07;100.00
6128;BME280;7073;42.672;23.256;2022-09-17T07:28:19;93504.34;;;21.63;100.00
6128;BME280;7073;42.672;23.256;2022-09-17T07:30:47;93514.53;;;22.00;97.54
6128;BME280;7073;42.672;23.256;2022-09-17T07:33:14;93506.84;;;21.90;98.32
6128;BME280;7073;42.672;23.256;2022-09-17T07:47:01;93491.66;;;22.95;97.75
6128;BME280;7073;42.672;23.256;2022-09-17T07:49:28;93507.59;;;24.01;89.95
6128;BME280;7073;42.672;23.256;2022-09-17T07:51:55;93508.38;;;24.02;88.43
6128;BME280;7073;42.672;23.256;2022-09-17T07:54:22;93510.81;;;24.24;85.72
6128;BME280;7073;42.672;23.256;2022-09-17T07:56:49;93491.34;;;24.61;81.82
6128;BME280;7073;42.672;23.256;2022-09-17T07:59:16;93490.22;;;24.04;84.09
6128;BME280;7073;42.672;23.256;2022-09-17T08:01:44;93490.72;;;25.26;78.56
6128;BME280;7073;42.672;23.256;2022-09-17T08:04:12;93499.50;;;25.92;75.64
6128;BME280;7073;42.672;23.256;2022-09-17T08:06:38;93500.16;;;25.77;76.76
6128;BME280;7073;42.672;23.256;2022-09-17T08:09:05;93481.91;;;24.93;80.30
6128;BME280;7073;42.672;23.256;2022-09-17T08:11:34;93470.91;;;24.94;81.10
6128;BME280;7073;42.672;23.256;2022-09-17T08:14:01;93479.81;;;24.99;80.43
6128;BME280;7073;42.672;23.256;2022-09-17T08:16:29;93472.06;;;25.06;81.10
6128;BME280;7073;42.672;23.256;2022-09-17T08:18:56;93481.31;;;25.08;82.49
6128;BME280;7073;42.672;23.256;2022-09-17T08:21:24;93481.44;;;25.12;77.15
6128;BME280;7073;42.672;23.256;2022-09-17T08:23:51;93477.63;;;24.71;81.82
6128;BME280;7073;42.672;23.256;2022-09-17T08:26:20;93472.41;;;25.04;80.07
6128;BME280;7073;42.672;23.256;2022-09-17T08:28:48;93479.41;;;25.29;79.02
6128;BME280;7073;42.672;23.256;2022-09-17T08:31:18;93481.66;;;25.60;78.94
6128;BME280;7073;42.672;23.256;2022-09-17T08:33:46;93483.25;;;25.20;78.60
6128;BME280;7073;42.672;23.256;2022-09-17T08:36:14;93485.72;;;25.25;75.74
6128;BME280;7073;42.672;23.256;2022-09-17T08:38:43;93485.19;;;24.69;76.78
6128;BME280;7073;42.672;23.256;2022-09-17T08:41:19;93481.13;;;24.63;78.82
6128;BME280;7073;42.672;23.256;2022-09-17T08:43:53;93485.41;;;24.85;75.51
6128;BME280;7073;42.672;23.256;2022-09-17T08:46:23;93476.25;;;24.94;74.45
6128;BME280;7073;42.672;23.256;2022-09-17T08:48:55;93475.63;;;23.72;81.32
6128;BME280;7073;42.672;23.256;2022-09-17T08:51:35;93471.44;;;24.00;81.92
6128;BME280;7073;42.672;23.256;2022-09-17T08:54:11;93467.44;;;23.86;83.05
6128;BME280;7073;42.672;23.256;2022-09-17T08:56:44;93469.41;;;23.51;85.88
6128;BME280;7073;42.672;23.256;2022-09-17T08:59:19;93472.59;;;23.82;82.39
6128;BME280;7073;42.672;23.256;2022-09-17T09:01:55;93444.16;;;23.74;82.82
6128;BME280;7073;42.672;23.256;2022-09-17T09:04:54;93455.53;;;23.83;80.34
6128;BME280;7073;42.672;23.256;2022-09-17T09:07:23;93487.13;;;23.93;80.12
6128;BME280;7073;42.672;23.256;2022-09-17T09:10:03;93477.59;;;23.20;85.47
6128;BME280;7073;42.672;23.256;2022-09-17T09:12:34;93434.88;;;23.25;85.23
6128;BME280;7073;42.672;23.256;2022-09-17T09:15:12;93485.34;;;23.34;87.60
6128;BME280;7073;42.672;23.256;2022-09-17T09:17:43;93483.53;;;23.17;89.38
6128;BME280;7073;42.672;23.256;2022-09-17T09:20:15;93476.00;;;23.19;92.68
6128;BME280;7073;42.672;23.256;2022-09-17T09:22:46;93481.19;;;22.73;94.03
6128;BME280;7073;42.672;23.256;2022-09-17T09:25:23;93492.72;;;22.68;95.65
6128;BME280;7073;42.672;23.256;2022-09-17T09:28:09;93505.84;;;22.73;95.22
6128;BME280;7073;42.672;23.256;2022-09-17T09:30:54;93514.63;;;22.99;95.71
6128;BME280;7073;42.672;23.256;2022-09-17T09:33:29;93510.84;;;22.66;98.58
6128;BME280;7073;42.672;23.256;2022-09-17T09:35:56;93518.84;;;22.92;96.85
6128;BME280;7073;42.672;23.256;2022-09-17T09:38:30;93532.19;;;22.44;100.00
6128;BME280;7073;42.672;23.256;2022-09-17T09:41:05;93532.25;;;22.22;100.00
6128;BME280;7073;42.672;23.256;2022-09-17T09:43:39;93526.84;;;22.35;100.00
6128;BME280;7073;42.672;23.256;2022-09-17T09:46:18;93536.72;;;22.52;100.00
6128;BME280;7073;42.672;23.256;2022-09-17T09:48:56;93560.28;;;22.45;100.00
6128;BME280;7073;42.672;23.256;2022-09-17T09:51:34;93555.81;;;22.23;99.21
6128;BME280;7073;42.672;23.256;2022-09-17T09:54:15;93562.56;;;22.29;99.34
6128;BME280;7073;42.672;23.256;2022-09-17T09:56:54;93553.84;;;21.76;100.00
6128;BME280;7073;42.672;23.256;2022-09-17T09:59:22;93517.00;;;21.88;100.00
6128;BME280;7073;42.672;23.256;2022-09-17T10:01:49;93503.78;;;21.97;100.00
6128;BME280;7073;42.672;23.256;2022-09-17T10:04:18;93489.72;;;21.74;100.00
6128;BME280;7073;42.672;23.256;2022-09-17T10:06:46;93435.69;;;21.22;100.00
6128;BME280;7073;42.672;23.256;2022-09-17T10:09:15;93447.94;;;21.40;100.00
6128;BME280;7073;42.672;23.256;2022-09-17T10:11:58;93439.97;;;21.71;100.00
6128;BME280;7073;42.672;23.256;2022-09-17T10:14:28;93446.31;;;21.61;100.00
6128;BME280;7073;42.672;23.256;2022-09-17T10:17:25;93429.75;;;21.56;100.00
6128;BME280;7073;42.672;23.256;2022-09-17T10:20:14;93411.13;;;21.08;100.00
6128;BME280;7073;42.672;23.256;2022-09-17T10:22:42;93409.38;;;21.25;100.00
6128;BME280;7073;42.672;23.256;2022-09-17T10:25:29;93410.88;;;20.96;100.00
6128;BME280;7073;42.672;23.256;2022-09-17T10:27:59;93419.09;;;20.50;100.00
6128;BME280;7073;42.672;23.256;2022-09-17T10:30:28;93416.31;;;20.55;100.00
6128;BME280;7073;42.672;23.256;2022-09-17T10:33:14;93422.78;;;20.85;100.00
6128;BME280;7073;42.672;23.256;2022-09-17T10:35:53;93416.75;;;20.70;100.00
6128;BME280;7073;42.672;23.256;2022-09-17T10:38:26;93417.97;;;20.64;100.00
6128;BME280;7073;42.672;23.256;2022-09-17T10:41:07;93404.06;;;20.81;100.00
6128;BME280;7073;42.672;23.256;2022-09-17T10:43:36;93394.50;;;20.71;100.00
6128;BME280;7073;42.672;23.256;2022-09-17T10:46:04;93363.91;;;20.57;100.00
6128;BME280;7073;42.672;23.256;2022-09-17T10:48:37;93384.03;;;21.11;97.09
6128;BME280;7073;42.672;23.256;2022-09-17T10:51:06;93372.28;;;21.25;100.00
6128;BME280;7073;42.672;23.256;2022-09-17T10:53:52;93376.41;;;21.09;100.00
6128;BME280;7073;42.672;23.256;2022-09-17T10:56:26;93377.56;;;21.03;100.00
6128;BME280;7073;42.672;23.256;2022-09-17T10:59:02;93408.16;;;20.65;100.00
6128;BME280;7073;42.672;23.256;2022-09-17T11:01:42;93410.63;;;20.61;100.00
6128;BME280;7073;42.672;23.256;2022-09-17T11:04:20;93405.22;;;20.66;100.00
6128;BME280;7073;42.672;23.256;2022-09-17T11:07:06;93412.41;;;20.30;100.00
6128;BME280;7073;42.672;23.256;2022-09-17T11:09:44;93429.72;;;20.23;100.00
6128;BME280;7073;42.672;23.256;2022-09-17T11:12:28;93422.06;;;20.35;100.00
6128;BME280;7073;42.672;23.256;2022-09-17T11:15:08;93426.19;;;20.41;100.00
6128;BME280;7073;42.672;23.256;2022-09-17T11:17:52;93410.66;;;20.48;100.00
6128;BME280;7073;42.672;23.256;2022-09-17T11:20:31;93417.84;;;20.69;100.00
6128;BME280;7073;42.672;23.256;2022-09-17T11:23:20;93426.94;;;20.77;100.00
6128;BME280;7073;42.672;23.256;2022-09-17T11:25:53;93406.28;;;21.10;100.00
6128;BME280;7073;42.672;23.256;2022-09-17T11:28:35;93422.31;;;21.27;100.00
6128;BME280;7073;42.672;23.256;2022-09-17T11:31:17;93409.25;;;21.08;100.00
6128;BME280;7073;42.672;23.256;2022-09-17T11:34:11;93405.44;;;21.23;100.00
6128;BME280;7073;42.672;23.256;2022-09-17T11:36:49;93393.88;;;21.50;100.00
6128;BME280;7073;42.672;23.256;2022-09-17T11:39:21;93397.63;;;21.49;99.44
6128;BME280;7073;42.672;23.256;2022-09-17T11:41:53;93414.25;;;22.19;80.51
6128;BME280;7073;42.672;23.256;2022-09-17T11:44:23;93382.25;;;22.33;78.76
6128;BME280;7073;42.672;23.256;2022-09-17T11:46:57;93358.38;;;22.33;79.94
6128;BME280;7073;42.672;23.256;2022-09-17T11:49:31;93363.16;;;22.05;80.52
6128;BME280;7073;42.672;23.256;2022-09-17T11:52:03;93374.38;;;22.02;84.21
6128;BME280;7073;42.672;23.256;2022-09-17T11:54:36;93367.88;;;21.60;87.79
6128;BME280;7073;42.672;23.256;2022-09-17T11:57:09;93371.03;;;21.79;92.41
6128;BME280;7073;42.672;23.256;2022-09-17T11:59:42;93364.94;;;21.79;92.99
6128;BME280;7073;42.672;23.256;2022-09-17T12:02:18;93362.59;;;21.29;100.00
6128;BME280;7073;42.672;23.256;2022-09-17T12:04:52;93377.56;;;21.25;91.63
6128;BME280;7073;42.672;23.256;2022-09-17T12:07:28;93372.94;;;21.40;91.56
6128;BME280;7073;42.672;23.256;2022-09-17T12:10:00;93351.22;;;21.29;90.09
6128;BME280;7073;42.672;23.256;2022-09-17T12:12:29;93370.66;;;21.55;88.23
6128;BME280;7073;42.672;23.256;2022-09-17T12:15:01;93387.22;;;21.61;86.49
6128;BME280;7073;42.672;23.256;2022-09-17T12:17:35;93383.06;;;21.38;84.47
6128;BME280;7073;42.672;23.256;2022-09-17T12:20:06;93366.75;;;21.53;81.38
6128;BME280;7073;42.672;23.256;2022-09-17T12:22:38;93379.34;;;21.47;82.53
6128;BME280;7073;42.672;23.256;2022-09-17T12:25:10;93340.72;;;21.15;85.21
6128;BME280;7073;42.672;23.256;2022-09-17T12:27:44;93358.06;;;20.99;85.42
6128;BME280;7073;42.672;23.256;2022-09-17T12:30:17;93372.50;;;21.15;81.90
6128;BME280;7073;42.672;23.256;2022-09-17T12:33:07;93360.91;;;21.33;80.99
6128;BME280;7073;42.672;23.256;2022-09-17T12:36:00;93359.75;;;21.17;87.10
6128;BME280;7073;42.672;23.256;2022-09-17T12:38:47;93346.38;;;21.22;85.54
6128;BME280;7073;42.672;23.256;2022-09-17T12:41:20;93375.59;;;20.87;87.24
6128;BME280;7073;42.672;23.256;2022-09-17T12:44:00;93345.66;;;20.78;88.56
6128;BME280;7073;42.672;23.256;2022-09-17T12:46:51;93326.72;;;20.62;89.55
6128;BME280;7073;42.672;23.256;2022-09-17T12:49:46;93330.91;;;20.63;91.03
6128;BME280;7073;42.672;23.256;2022-09-17T12:52:27;93301.50;;;20.42;91.65
6128;BME280;7073;42.672;23.256;2022-09-17T12:58:06;93306.50;;;20.44;90.66
6128;BME280;7073;42.672;23.256;2022-09-17T13:00:39;93319.69;;;20.35;93.38
6128;BME280;7073;42.672;23.256;2022-09-17T13:03:17;93304.81;;;20.26;90.21
6128;BME280;7073;42.672;23.256;2022-09-17T13:06:02;93245.97;;;19.84;91.68
6128;BME280;7073;42.672;23.256;2022-09-17T13:11:56;93280.72;;;19.91;95.42
6128;BME280;7073;42.672;23.256;2022-09-17T13:14:46;93271.19;;;20.04;94.36
6128;BME280;7073;42.672;23.256;2022-09-17T13:17:21;93299.44;;;20.17;94.10
6128;BME280;7073;42.672;23.256;2022-09-17T13:19:57;93284.31;;;20.17;96.29
6128;BME280;7073;42.672;23.256;2022-09-17T13:22:28;93240.22;;;19.82;95.07
6128;BME280;7073;42.672;23.256;2022-09-17T13:25:04;93290.19;;;20.28;92.01
6128;BME280;7073;42.672;23.256;2022-09-17T13:27:32;93283.53;;;20.31;92.64
6128;BME280;7073;42.672;23.256;2022-09-17T13:30:03;93290.03;;;20.25;93.55
6128;BME280;7073;42.672;23.256;2022-09-17T13:32:48;93248.06;;;20.09;94.34
6128;BME280;7073;42.672;23.256;2022-09-17T13:35:46;93280.03;;;20.22;94.75
6128;BME280;7073;42.672;23.256;2022-09-17T13:38:17;93265.53;;;20.19;89.67
6128;BME280;7073;42.672;23.256;2022-09-17T13:40:45;93257.06;;;20.53;89.57
6128;BME280;7073;42.672;23.256;2022-09-17T13:43:15;93240.16;;;20.18;93.18
6128;BME280;7073;42.672;23.256;2022-09-17T13:46:05;93218.88;;;20.23;93.48
6128;BME280;7073;42.672;23.256;2022-09-17T13:48:36;93197.22;;;20.21;93.87
6128;BME280;7073;42.672;23.256;2022-09-17T13:51:45;93191.38;;;20.24;92.79
6128;BME280;7073;42.672;23.256;2022-09-17T13:54:15;93191.72;;;20.31;91.69